Time;durP1;ratioP1;P1;durP2;ratioP2;P2;SDS_P1;SDS_P2;PMS_P1;PMS_P2;Temp;Humidity;BMP_temperature;BMP_pressure;BME280_temperature;BME280_humidity;BME280_pressure;Samples;Min_cycle;Max_cycle;Signal;HPM_P1;HPM_P2
2021/06/01 00:01:25;;;;;;;;;5.25;4.75;;;;;16.59;47.05;101363.41;4905394;28;45404;-86
2021/06/01 00:03:50;;;;;;;;;8.00;6.00;;;;;16.52;46.51;101365.50;4905766;28;45407;-83
2021/06/01 00:06:16;;;;;;;;;6.50;5.00;;;;;16.50;47.42;101353.22;4905360;28;45344;-83
2021/06/01 00:08:42;;;;;;;;;6.50;4.00;;;;;16.45;47.81;101357.88;4903552;28;46195;-82
2021/06/01 00:11:10;;;;;;;;;4.25;4.00;;;;;16.38;47.80;101355.56;4905721;28;45606;-87
2021/06/01 00:13:36;;;;;;;;;5.25;5.25;;;;;16.34;49.05;101355.78;4905115;29;45218;-87
2021/06/01 00:16:03;;;;;;;;;6.50;5.00;;;;;16.28;47.96;101351.59;4905288;28;45368;-87
2021/06/01 00:18:28;;;;;;;;;8.25;6.75;;;;;16.23;48.99;101354.47;4905447;29;45488;-87
2021/06/01 00:20:54;;;;;;;;;5.75;5.00;;;;;16.17;48.34;101352.97;4905533;28;45311;-88
2021/06/01 00:23:19;;;;;;;;;5.50;5.50;;;;;16.12;48.94;101352.34;4905692;28;45387;-89
2021/06/01 00:25:44;;;;;;;;;5.25;5.25;;;;;16.07;48.95;101357.00;4905420;29;45483;-89
2021/06/01 00:28:10;;;;;;;;;6.00;5.00;;;;;16.03;48.34;101355.38;4905114;28;46708;-92
2021/06/01 00:30:35;;;;;;;;;5.50;3.75;;;;;16.01;49.30;101350.16;4903767;29;45402;-91
2021/06/01 00:33:01;;;;;;;;;5.50;5.50;;;;;16.00;49.76;101356.38;4905181;29;45443;-90
2021/06/01 00:35:26;;;;;;;;;4.00;4.00;;;;;15.95;49.30;101350.44;4919551;28;46081;-88
2021/06/01 00:37:51;;;;;;;;;4.75;4.50;;;;;15.92;48.99;101350.59;4905128;28;45361;-88
2021/06/01 00:40:17;;;;;;;;;5.00;5.00;;;;;15.90;49.04;101348.00;4905110;28;45231;-88
2021/06/01 00:42:43;;;;;;;;;5.25;5.00;;;;;15.88;48.78;101349.84;4905080;28;45352;-88
2021/06/01 00:45:09;;;;;;;;;8.75;5.00;;;;;15.84;48.81;101343.84;4903663;29;46083;-90
2021/06/01 00:47:34;;;;;;;;;6.25;5.75;;;;;15.83;48.88;101351.84;4892171;29;48374;-91
2021/06/01 00:49:59;;;;;;;;;4.75;4.75;;;;;15.79;49.15;101345.84;4903787;29;45498;-88
2021/06/01 00:52:25;;;;;;;;;6.25;6.00;;;;;15.75;49.52;101338.97;4904351;28;45283;-88
2021/06/01 00:54:50;;;;;;;;;5.00;5.00;;;;;15.74;49.45;101340.75;4904893;28;45450;-88
2021/06/01 00:57:15;;;;;;;;;3.50;3.50;;;;;15.71;50.06;101340.03;4918385;28;47048;-83
2021/06/01 00:59:41;;;;;;;;;5.75;5.75;;;;;15.63;49.86;101332.44;4896377;29;45208;-82
2021/06/01 01:02:06;;;;;;;;;4.00;4.00;;;;;15.62;50.25;101341.31;4904832;29;45424;-90
2021/06/01 01:04:32;;;;;;;;;5.25;4.75;;;;;15.59;50.32;101338.78;4905069;29;45311;-90
2021/06/01 01:07:22;;;;;;;;;5.00;4.00;;;;;15.57;50.42;101338.00;4903644;28;46133;-90
2021/06/01 01:09:49;;;;;;;;;7.50;5.25;;;;;15.51;50.68;101337.34;4904793;28;45550;-90
2021/06/01 01:12:40;;;;;;;;;3.75;3.75;;;;;15.49;50.35;101336.56;4904421;28;45464;-90
2021/06/01 01:15:07;;;;;;;;;5.50;5.00;;;;;15.48;50.91;101336.63;4904599;28;45425;-90
2021/06/01 01:17:44;;;;;;;;;4.00;3.50;;;;;15.46;51.61;101336.69;4903531;28;47487;-90
2021/06/01 01:20:17;;;;;;;;;5.00;5.00;;;;;15.45;50.53;101332.31;4904636;28;45361;-89
2021/06/01 01:22:45;;;;;;;;;6.50;5.50;;;;;15.44;50.06;101325.28;4919306;28;45222;-89
2021/06/01 01:25:23;;;;;;;;;4.25;4.25;;;;;15.44;50.37;101329.72;4903838;29;45705;-94
2021/06/01 01:27:58;;;;;;;;;10.00;6.00;;;;;15.41;49.98;101320.13;4890209;29;47380;-93
2021/06/01 01:30:28;;;;;;;;;6.00;4.50;;;;;15.37;50.76;101322.06;4899473;29;45302;-91
2021/06/01 01:33:00;;;;;;;;;5.75;4.00;;;;;15.35;50.75;101321.28;4904785;28;45177;-91
2021/06/01 01:35:29;;;;;;;;;5.00;4.00;;;;;15.33;49.89;101327.56;4904319;29;45475;-90
2021/06/01 01:37:59;;;;;;;;;4.50;4.50;;;;;15.32;50.09;101318.75;4918959;28;47593;-90
2021/06/01 01:40:26;;;;;;;;;4.00;4.00;;;;;15.32;50.94;101317.88;4904062;29;45313;-91
2021/06/01 01:42:59;;;;;;;;;5.00;5.00;;;;;15.29;51.80;101313.59;4902123;29;45427;-90
2021/06/01 01:45:29;;;;;;;;;5.00;5.00;;;;;15.28;50.62;101314.53;4902689;29;46230;-89
2021/06/01 01:51:12;;;;;;;;;5.50;5.50;;;;;15.23;50.94;101309.44;4895547;29;45342;-89
2021/06/01 01:53:48;;;;;;;;;9.00;5.00;;;;;15.22;51.03;101307.72;4903046;28;45427;-88
2021/06/01 01:56:14;;;;;;;;;4.25;4.25;;;;;15.20;50.92;101306.91;4910329;28;45995;-96
2021/06/01 01:58:41;;;;;;;;;8.00;6.00;;;;;15.19;52.54;101305.19;4905445;28;47158;-85
2021/06/01 02:01:07;;;;;;;;;5.25;5.00;;;;;15.12;51.15;101298.44;4902297;29;45259;-85
2021/06/01 02:03:34;;;;;;;;;4.25;4.25;;;;;15.11;51.23;101294.09;4904327;28;45243;-89
2021/06/01 02:06:00;;;;;;;;;5.00;4.00;;;;;15.10;51.37;101298.50;4903407;28;45221;-89
2021/06/01 02:08:25;;;;;;;;;6.25;6.25;;;;;15.06;51.02;101292.47;4903927;28;46127;-89
2021/06/01 02:10:53;;;;;;;;;5.00;5.00;;;;;15.04;51.61;101294.34;4903799;29;45222;-89
2021/06/01 02:13:18;;;;;;;;;6.25;4.25;;;;;14.99;51.87;101292.84;4902078;29;45321;-85
2021/06/01 02:15:44;;;;;;;;;6.50;6.50;;;;;14.98;52.16;101299.03;4901243;29;47024;-85
2021/06/01 02:18:09;;;;;;;;;5.75;5.75;;;;;14.99;51.94;101303.41;4902382;29;45452;-86
2021/06/01 02:20:34;;;;;;;;;5.50;5.00;;;;;14.93;51.96;101294.81;4917748;28;45371;-84
2021/06/01 02:25:57;;;;;;;;;5.50;4.75;;;;;14.91;51.06;101301.09;4903346;29;45603;-84
2021/06/01 02:28:39;;;;;;;;;7.75;6.00;;;;;14.89;53.01;101285.25;4903463;29;45426;-84
2021/06/01 02:31:07;;;;;;;;;8.50;6.25;;;;;14.91;52.32;101301.09;4901718;29;45477;-85
2021/06/01 02:33:35;;;;;;;;;3.00;3.00;;;;;14.90;52.11;101288.78;4902427;29;45293;-85
2021/06/01 02:36:03;;;;;;;;;4.00;4.00;;;;;14.85;52.60;101284.53;4903202;28;45349;-85
2021/06/01 02:38:31;;;;;;;;;5.00;5.00;;;;;14.84;52.21;101285.44;4903120;29;45609;-84
2021/06/01 02:40:58;;;;;;;;;8.00;8.00;;;;;14.82;52.82;101283.78;4903493;28;45238;-84
2021/06/01 02:43:24;;;;;;;;;5.00;5.00;;;;;14.79;53.52;101287.41;4916912;28;45365;-88
2021/06/01 02:45:50;;;;;;;;;6.75;5.75;;;;;14.75;52.61;101285.81;4902744;29;45450;-88
2021/06/01 02:48:19;;;;;;;;;8.00;5.25;;;;;14.72;53.37;101288.59;4902282;29;47090;-89
2021/06/01 02:50:49;;;;;;;;;6.25;6.25;;;;;14.69;53.24;101281.63;4901084;29;45316;-88
2021/06/01 02:53:15;;;;;;;;;9.00;5.50;;;;;14.69;52.20;101280.81;4903607;29;45300;-86
2021/06/01 02:55:41;;;;;;;;;6.75;5.75;;;;;14.69;52.96;101275.50;4902833;28;45284;-86
2021/06/01 02:58:13;;;;;;;;;6.75;6.75;;;;;14.70;52.93;101274.56;4902902;29;45835;-84
2021/06/01 03:00:40;;;;;;;;;6.25;5.00;;;;;14.66;53.05;101268.56;4901513;29;45784;-86
2021/06/01 03:03:11;;;;;;;;;6.50;6.50;;;;;14.68;52.02;101273.78;4909687;28;45475;-86
2021/06/01 03:05:37;;;;;;;;;9.00;6.25;;;;;14.71;51.51;101274.53;4904161;28;45279;-91
2021/06/01 03:08:21;;;;;;;;;9.75;5.00;;;;;14.78;52.29;101274.25;4916275;28;47626;-89
2021/06/01 03:10:47;;;;;;;;;7.00;7.00;;;;;14.77;53.25;101268.09;4902492;28;45615;-87
2021/06/01 03:13:12;;;;;;;;;5.50;5.00;;;;;14.74;51.91;101273.53;4901621;29;45223;-91
2021/06/01 03:15:38;;;;;;;;;6.50;5.50;;;;;14.71;52.87;101271.00;4917135;28;47127;-90
2021/06/01 03:18:03;;;;;;;;;8.75;8.00;;;;;14.69;53.07;101270.22;4903097;28;45318;-92
2021/06/01 03:20:29;;;;;;;;;5.00;5.00;;;;;14.64;52.98;101265.13;4917788;28;45653;-91
2021/06/01 03:22:55;;;;;;;;;7.25;5.00;;;;;14.60;53.32;101261.72;4901583;29;45458;-92
2021/06/01 03:25:20;;;;;;;;;8.25;6.00;;;;;14.55;53.44;101261.06;4917701;28;46289;-91
2021/06/01 03:27:47;;;;;;;;;6.50;5.25;;;;;14.52;53.03;101262.03;4901251;29;48185;-92
2021/06/01 03:30:14;;;;;;;;;6.00;4.75;;;;;14.54;53.36;101264.66;4918681;28;45448;-92
2021/06/01 03:32:40;;;;;;;;;8.75;8.50;;;;;14.53;52.12;101265.56;4904788;29;45309;-92
2021/06/01 03:35:07;;;;;;;;;6.00;6.00;;;;;14.54;52.33;101262.00;4906494;28;45549;-93
2021/06/01 03:37:32;;;;;;;;;5.00;5.00;;;;;14.55;52.82;101257.53;4899856;29;46355;-93
2021/06/01 03:39:57;;;;;;;;;7.50;5.75;;;;;14.54;53.24;101258.50;4898015;29;45291;-92
2021/06/01 03:42:23;;;;;;;;;9.75;7.25;;;;;14.50;53.47;101258.59;4905128;28;45425;-90
2021/06/01 03:44:48;;;;;;;;;8.50;7.50;;;;;14.49;54.04;101258.69;4905749;28;45212;-91
2021/06/01 03:47:13;;;;;;;;;6.50;6.50;;;;;14.46;54.06;101264.97;4905525;29;45316;-88
2021/06/01 03:49:39;;;;;;;;;6.25;5.00;;;;;14.44;53.14;101258.00;4905177;28;45157;-92
2021/06/01 03:52:08;;;;;;;;;8.25;5.25;;;;;14.45;52.72;101262.34;4905891;28;45450;-88
2021/06/01 03:54:38;;;;;;;;;9.00;6.75;;;;;14.46;52.85;101258.81;4904722;29;47136;-90
2021/06/01 03:57:05;;;;;;;;;8.00;8.00;;;;;14.47;53.53;101255.25;4905361;28;46001;-84
2021/06/01 03:59:31;;;;;;;;;7.00;7.00;;;;;14.48;53.16;101256.94;4904811;28;45320;-84
2021/06/01 04:01:56;;;;;;;;;7.00;7.00;;;;;14.50;53.91;101255.09;4903731;29;45728;-84
2021/06/01 04:04:22;;;;;;;;;7.50;5.50;;;;;14.51;53.03;101262.13;4905824;28;45615;-83
2021/06/01 04:06:47;;;;;;;;;6.50;6.50;;;;;14.42;53.73;101262.50;4904490;29;47323;-79
2021/06/01 04:09:13;;;;;;;;;7.00;6.75;;;;;14.37;54.36;101266.19;4920333;28;45294;-79
2021/06/01 04:11:39;;;;;;;;;9.75;7.00;;;;;14.38;53.82;101267.03;4905311;28;45321;-79
2021/06/01 04:14:04;;;;;;;;;7.50;5.75;;;;;14.39;53.80;101267.00;4905782;29;45317;-79
2021/06/01 04:16:30;;;;;;;;;8.00;8.00;;;;;14.39;54.43;101264.34;4904788;28;45601;-79
2021/06/01 04:18:55;;;;;;;;;6.50;6.50;;;;;14.39;54.08;101269.66;4905941;28;45488;-79
2021/06/01 04:21:21;;;;;;;;;7.25;6.00;;;;;14.37;54.49;101266.19;4903735;29;45623;-82
2021/06/01 04:23:47;;;;;;;;;7.00;6.25;;;;;14.38;54.65;101259.97;4904520;29;47619;-82
2021/06/01 04:26:12;;;;;;;;;7.50;4.25;;;;;14.37;54.51;101258.25;4905084;28;46390;-83
2021/06/01 04:28:38;;;;;;;;;8.75;8.50;;;;;14.37;54.52;101260.88;4905326;28;45295;-83
2021/06/01 04:31:03;;;;;;;;;5.75;5.75;;;;;14.35;54.44;101256.56;4904297;29;45213;-81
2021/06/01 04:33:28;;;;;;;;;6.50;6.25;;;;;14.36;54.19;101250.38;4905468;28;45187;-80
2021/06/01 04:35:54;;;;;;;;;8.50;7.25;;;;;14.37;54.18;101252.13;4905327;29;46311;-83
2021/06/01 04:38:19;;;;;;;;;9.00;6.50;;;;;14.37;54.86;101249.47;4904936;29;45242;-83
2021/06/01 04:40:45;;;;;;;;;10.50;8.00;;;;;14.38;54.65;101257.34;4904482;28;45400;-87
2021/06/01 04:43:10;;;;;;;;;10.25;9.00;;;;;14.38;54.75;101249.41;4904429;28;45677;-86
2021/06/01 04:45:35;;;;;;;;;8.00;7.00;;;;;14.42;55.07;101251.94;4905254;29;46112;-87
2021/06/01 04:48:01;;;;;;;;;6.75;6.25;;;;;14.44;54.55;101250.06;4919937;28;45800;-86
2021/06/01 04:50:27;;;;;;;;;9.75;7.75;;;;;14.46;54.09;101243.81;4904059;29;46702;-79
2021/06/01 04:52:53;;;;;;;;;7.50;6.00;;;;;14.49;54.33;101248.09;4909854;28;45532;-79
2021/06/01 04:55:18;;;;;;;;;9.25;7.25;;;;;14.51;54.11;101239.19;4904380;28;45535;-79
2021/06/01 04:57:43;;;;;;;;;7.50;5.50;;;;;14.56;54.07;101238.13;4904375;29;45437;-80
2021/06/01 05:00:10;;;;;;;;;10.75;8.25;;;;;14.60;53.21;101245.00;4904239;28;45287;-76
2021/06/01 05:02:36;;;;;;;;;8.50;8.50;;;;;14.63;53.03;101251.03;4905159;29;45635;-76
2021/06/01 05:05:03;;;;;;;;;6.75;5.75;;;;;14.68;53.14;101250.84;4904910;28;45382;-76
2021/06/01 05:07:28;;;;;;;;;9.75;7.00;;;;;14.72;53.26;101235.66;4904617;28;45217;-76
2021/06/01 05:10:00;;;;;;;;;10.25;7.25;;;;;14.76;53.55;101239.06;4915309;28;45577;-76
2021/06/01 05:12:25;;;;;;;;;5.00;5.00;;;;;14.81;53.70;101243.25;4891483;28;45367;-77
2021/06/01 05:14:51;;;;;;;;;10.00;8.50;;;;;14.84;52.80;101234.31;4902558;28;46604;-76
2021/06/01 05:17:16;;;;;;;;;8.25;7.50;;;;;14.89;52.54;101228.84;4903584;28;45341;-77
2021/06/01 05:19:41;;;;;;;;;9.50;8.25;;;;;14.92;52.42;101231.34;4901858;29;45681;-77
2021/06/01 05:22:07;;;;;;;;;8.00;6.50;;;;;14.95;52.14;101226.78;4903160;29;45400;-77
2021/06/01 05:24:32;;;;;;;;;8.00;6.25;;;;;15.00;51.58;101218.63;4903393;28;45233;-76
2021/06/01 05:26:57;;;;;;;;;9.50;6.25;;;;;15.03;51.97;101226.44;4903362;29;45254;-76
2021/06/01 05:29:23;;;;;;;;;9.00;7.75;;;;;15.07;51.82;101230.69;4903626;28;45636;-77
2021/06/01 05:34:19;;;;;;;;;9.75;7.25;;;;;15.16;53.12;101233.84;4901454;28;45535;-77
2021/06/01 05:36:44;;;;;;;;;8.00;8.00;;;;;15.20;52.05;101232.78;4904986;28;45456;-77
2021/06/01 05:39:13;;;;;;;;;6.50;5.00;;;;;15.25;52.21;101235.22;4903169;29;45715;-76
2021/06/01 05:41:38;;;;;;;;;7.25;6.75;;;;;15.31;51.75;101232.28;4900502;29;45574;-76
2021/06/01 05:44:04;;;;;;;;;9.75;7.25;;;;;15.34;51.27;101220.69;4901048;29;46582;-77
2021/06/01 05:46:29;;;;;;;;;11.50;8.00;;;;;15.38;51.42;101227.59;4916668;28;45733;-76
2021/06/01 05:48:55;;;;;;;;;8.00;8.00;;;;;15.40;50.78;101223.06;4903001;28;45448;-77
2021/06/01 05:51:24;;;;;;;;;8.75;7.00;;;;;15.43;50.95;101220.28;4901607;29;45456;-76
2021/06/01 05:53:52;;;;;;;;;8.25;7.75;;;;;15.48;51.26;101220.91;4901489;28;45431;-77
2021/06/01 05:56:18;;;;;;;;;6.25;6.00;;;;;15.55;50.76;101220.66;4902636;28;45461;-79
2021/06/01 05:58:44;;;;;;;;;9.00;9.00;;;;;15.59;50.82;101220.44;4901724;29;45364;-78
2021/06/01 06:01:10;;;;;;;;;7.00;7.00;;;;;15.64;50.46;101221.06;4902984;28;45506;-79
2021/06/01 06:03:35;;;;;;;;;12.25;10.75;;;;;15.69;50.06;101212.03;4902144;28;46043;-78
2021/06/01 06:06:04;;;;;;;;;13.75;13.50;;;;;15.73;50.85;101214.47;4917278;28;45880;-79
2021/06/01 06:08:30;;;;;;;;;17.50;14.75;;;;;15.80;50.37;101214.19;4902547;28;45445;-77
2021/06/01 06:10:55;;;;;;;;;11.25;10.50;;;;;15.84;50.23;101211.31;4899799;29;46016;-77
2021/06/01 06:13:21;;;;;;;;;17.25;13.50;;;;;15.93;50.82;101214.44;4900271;28;46363;-78
2021/06/01 06:15:46;;;;;;;;;21.00;16.75;;;;;16.00;50.18;101212.38;4900434;28;45473;-76
2021/06/01 06:18:27;;;;;;;;;19.00;15.50;;;;;16.08;50.62;101216.41;4901971;28;46111;-77
2021/06/01 06:20:59;;;;;;;;;13.25;12.50;;;;;16.14;49.44;101215.25;4892543;29;45393;-76
2021/06/01 06:23:24;;;;;;;;;17.50;16.00;;;;;16.18;49.91;101208.84;4903737;29;45228;-76
2021/06/01 06:25:49;;;;;;;;;12.25;12.00;;;;;16.24;49.15;101207.69;4903032;28;45485;-77
2021/06/01 06:28:15;;;;;;;;;14.25;12.00;;;;;16.27;49.55;101210.16;4901364;29;45424;-77
2021/06/01 06:30:40;;;;;;;;;11.75;11.25;;;;;16.33;48.60;101205.50;4903727;28;45287;-76
2021/06/01 06:33:06;;;;;;;;;8.25;6.25;;;;;16.37;48.30;101202.59;4902389;28;45462;-76
2021/06/01 06:35:31;;;;;;;;;10.50;10.00;;;;;16.42;49.27;101203.25;4901967;29;45467;-76
2021/06/01 06:37:57;;;;;;;;;9.50;8.25;;;;;16.49;48.91;101200.28;4902417;29;45583;-76
2021/06/01 06:40:22;;;;;;;;;9.25;9.25;;;;;16.56;49.65;101195.53;4903023;28;45440;-76
2021/06/01 06:42:47;;;;;;;;;7.50;7.50;;;;;16.63;49.41;101197.78;4901435;29;47699;-77
2021/06/01 06:45:15;;;;;;;;;9.75;8.75;;;;;16.71;49.20;101200.06;4902531;29;45440;-76
2021/06/01 06:50:08;;;;;;;;;8.00;5.50;;;;;16.86;48.16;101202.84;4902272;28;45324;-77
2021/06/01 06:52:34;;;;;;;;;8.25;6.75;;;;;16.90;48.58;101206.19;4903073;28;46375;-77
2021/06/01 06:55:00;;;;;;;;;8.00;6.25;;;;;16.93;47.71;101198.06;4896946;29;46053;-76
2021/06/01 06:57:25;;;;;;;;;7.75;7.00;;;;;16.98;48.24;101196.03;4901344;28;46214;-76
2021/06/01 06:59:50;;;;;;;;;6.75;5.50;;;;;17.04;48.33;101194.84;4900461;28;45464;-76
2021/06/01 07:02:17;;;;;;;;;6.00;6.00;;;;;17.08;48.43;101202.56;4914998;28;48617;-76
2021/06/01 07:04:42;;;;;;;;;8.25;7.50;;;;;17.16;48.54;101196.03;4900514;29;45406;-77
2021/06/01 07:07:08;;;;;;;;;7.00;5.00;;;;;17.21;48.44;101196.63;4902028;29;45520;-76
2021/06/01 07:09:37;;;;;;;;;6.75;6.75;;;;;17.26;46.99;101194.56;4902401;28;47190;-77
2021/06/01 07:12:03;;;;;;;;;8.00;7.00;;;;;17.28;47.63;101187.38;4900971;28;45657;-76
2021/06/01 07:14:39;;;;;;;;;6.25;5.25;;;;;17.34;47.79;101187.97;4898564;29;45529;-76
2021/06/01 07:17:06;;;;;;;;;6.75;6.50;;;;;17.38;47.43;101190.41;4898868;29;45236;-76
2021/06/01 07:19:32;;;;;;;;;9.50;8.25;;;;;17.42;46.81;101183.97;4900797;28;45406;-77
2021/06/01 07:21:57;;;;;;;;;8.00;8.00;;;;;17.46;47.53;101184.63;4894255;28;45907;-77
2021/06/01 07:24:23;;;;;;;;;9.50;7.00;;;;;17.51;47.39;101165.78;4892809;28;45445;-77
2021/06/01 07:26:48;;;;;;;;;8.75;8.75;;;;;17.59;47.48;101178.66;4895241;28;45496;-77
2021/06/01 07:29:13;;;;;;;;;10.75;8.00;;;;;17.63;47.48;101167.75;4893634;29;47268;-77
2021/06/01 07:31:39;;;;;;;;;7.25;6.50;;;;;17.70;47.45;101170.94;4891971;28;45659;-77
2021/06/01 07:34:04;;;;;;;;;6.75;6.75;;;;;17.75;47.43;101168.84;4891994;29;45524;-77
2021/06/01 07:36:30;;;;;;;;;8.75;7.75;;;;;17.83;46.72;101155.13;4893342;29;45483;-77
2021/06/01 07:38:55;;;;;;;;;8.75;6.75;;;;;17.90;46.79;101160.97;4892377;28;47033;-76
2021/06/01 07:41:20;;;;;;;;;9.75;7.50;;;;;17.98;46.62;101160.50;4895392;28;46249;-77
2021/06/01 07:43:45;;;;;;;;;9.25;8.50;;;;;18.05;46.80;101158.38;4891006;28;45571;-77
2021/06/01 07:46:11;;;;;;;;;9.00;9.00;;;;;18.11;46.69;101161.50;4884432;28;45578;-77
2021/06/01 07:48:38;;;;;;;;;2.50;2.25;;;;;18.21;47.19;101164.53;4896662;29;45771;-77
2021/06/01 07:51:03;;;;;;;;;7.25;7.00;;;;;18.30;46.16;101172.91;4900285;29;46030;-77
2021/06/01 07:53:31;;;;;;;;;9.00;9.00;;;;;18.37;46.65;101162.75;4897623;29;45528;-76
2021/06/01 07:55:57;;;;;;;;;9.00;7.50;;;;;18.44;46.11;101161.44;4899659;29;45343;-77
2021/06/01 07:58:22;;;;;;;;;7.75;7.25;;;;;18.52;46.14;101167.16;4898441;29;46102;-77
2021/06/01 08:00:47;;;;;;;;;9.00;9.00;;;;;18.60;46.13;101163.16;4898852;28;46117;-77
2021/06/01 08:03:17;;;;;;;;;8.00;8.00;;;;;18.68;46.57;101160.91;4900698;29;45401;-77
2021/06/01 08:05:43;;;;;;;;;8.25;7.25;;;;;18.78;45.46;101150.56;4899694;28;45211;-77
2021/06/01 08:08:08;;;;;;;;;10.25;7.00;;;;;18.83;44.86;101151.13;4896614;28;45346;-76
2021/06/01 08:10:34;;;;;;;;;11.50;9.00;;;;;18.91;45.54;101136.47;4899283;28;45570;-77
2021/06/01 08:13:01;;;;;;;;;9.00;8.00;;;;;18.99;44.55;101136.84;4900856;29;45493;-77
2021/06/01 08:15:26;;;;;;;;;9.00;8.00;;;;;19.07;45.30;101139.88;4899484;29;45657;-77
2021/06/01 08:17:55;;;;;;;;;7.00;7.00;;;;;19.16;45.71;101135.78;4904243;28;45611;-77
2021/06/01 08:20:37;;;;;;;;;8.50;7.50;;;;;19.25;45.45;101131.72;4899487;29;46053;-76
2021/06/01 08:23:03;;;;;;;;;8.75;7.50;;;;;19.34;45.17;101120.47;4902962;29;46507;-77
2021/06/01 08:25:28;;;;;;;;;8.50;8.00;;;;;19.44;44.81;101114.53;4918089;28;45488;-77
2021/06/01 08:27:54;;;;;;;;;11.00;9.00;;;;;19.52;44.84;101109.56;4901211;28;45539;-77
2021/06/01 08:30:20;;;;;;;;;9.75;6.50;;;;;19.62;44.87;101112.47;4897031;28;46173;-77
2021/06/01 08:32:46;;;;;;;;;7.00;7.00;;;;;19.67;44.85;101115.69;4901708;28;45700;-76
2021/06/01 08:35:11;;;;;;;;;7.75;6.50;;;;;19.72;44.49;101115.38;4902363;28;45398;-76
2021/06/01 08:37:39;;;;;;;;;8.25;6.25;;;;;19.78;44.84;101117.63;4898044;28;45288;-77
2021/06/01 08:40:05;;;;;;;;;10.00;7.50;;;;;19.86;45.13;101117.13;4901403;29;46804;-76
2021/06/01 08:42:31;;;;;;;;;11.00;8.50;;;;;19.94;44.03;101110.44;4901235;29;45924;-77
2021/06/01 08:44:56;;;;;;;;;7.00;6.75;;;;;19.98;43.42;101102.13;4917462;28;45477;-77
2021/06/01 08:47:21;;;;;;;;;7.25;6.50;;;;;20.06;43.99;101103.41;4898026;28;45506;-77
2021/06/01 08:49:48;;;;;;;;;8.25;8.00;;;;;20.14;44.01;101098.44;4893934;28;46313;-77
2021/06/01 08:52:15;;;;;;;;;8.75;7.25;;;;;20.23;43.92;101105.81;4897952;29;45927;-76
2021/06/01 08:54:42;;;;;;;;;8.50;6.75;;;;;20.32;43.98;101100.81;4898407;28;45569;-77
2021/06/01 08:57:08;;;;;;;;;7.75;7.75;;;;;20.40;44.09;101103.78;4901769;28;46439;-77
2021/06/01 08:59:34;;;;;;;;;11.00;7.75;;;;;20.48;43.37;101110.41;4899148;28;45967;-76
2021/06/01 09:02:00;;;;;;;;;4.00;4.00;;;;;20.55;43.45;101104.53;4894847;28;45546;-77
2021/06/01 09:04:25;;;;;;;;;7.00;6.75;;;;;20.63;43.51;101098.66;4899190;29;46093;-77
2021/06/01 09:06:59;;;;;;;;;7.50;5.75;;;;;20.72;43.27;101099.81;4901880;28;45345;-76
2021/06/01 09:09:42;;;;;;;;;6.00;6.00;;;;;20.75;43.31;101093.41;4907453;28;47303;-76
2021/06/01 09:12:24;;;;;;;;;9.25;7.75;;;;;20.74;43.37;101094.38;4899931;29;45652;-76
2021/06/01 09:22:46;;;;;;;;;9.25;7.25;;;;;21.19;42.14;101082.31;4896282;28;45556;-76
2021/06/01 09:25:18;;;;;;;;;6.25;6.25;;;;;21.29;42.13;101080.69;4898670;28;45532;-76
2021/06/01 09:27:55;;;;;;;;;6.00;6.00;;;;;21.32;42.13;101080.47;4899408;28;45554;-76
2021/06/01 09:30:42;;;;;;;;;12.50;9.00;;;;;21.38;41.99;101073.81;4898765;29;45562;-76
2021/06/01 09:33:16;;;;;;;;;8.75;8.50;;;;;21.47;41.48;101082.97;4895460;29;45501;-77
2021/06/01 09:35:42;;;;;;;;;7.00;7.00;;;;;21.45;42.01;101068.88;4906573;28;45815;-77
2021/06/01 09:38:08;;;;;;;;;10.25;7.75;;;;;21.38;41.55;101062.28;4893331;28;45573;-76
2021/06/01 09:40:33;;;;;;;;;7.50;7.00;;;;;21.31;42.58;101068.06;4910686;28;47329;-78
2021/06/01 09:42:58;;;;;;;;;6.00;6.00;;;;;21.39;41.87;101067.50;4917189;28;45287;-76
2021/06/01 09:45:25;;;;;;;;;5.50;5.50;;;;;21.51;41.31;101057.69;4903315;28;45319;-76
2021/06/01 09:47:54;;;;;;;;;7.75;7.00;;;;;21.50;41.82;101061.34;4902440;28;45231;-76
2021/06/01 09:53:01;;;;;;;;;8.50;7.25;;;;;21.70;41.59;101070.53;4899701;29;45488;-76
2021/06/01 09:55:35;;;;;;;;;9.00;9.00;;;;;21.86;41.28;101060.50;4902874;28;45463;-77
2021/06/01 09:58:04;;;;;;;;;9.25;7.00;;;;;21.99;41.50;101065.78;4902055;28;45385;-77
2021/06/01 10:00:31;;;;;;;;;9.75;7.25;;;;;22.04;40.09;101063.63;4901096;28;45435;-77
2021/06/01 10:03:03;;;;;;;;;7.00;7.00;;;;;22.11;40.30;101069.34;4901773;29;45339;-76
2021/06/01 10:05:30;;;;;;;;;6.50;6.00;;;;;22.27;41.00;101071.69;4903356;28;45338;-76
2021/06/01 10:07:59;;;;;;;;;6.75;6.75;;;;;22.32;41.01;101069.47;4903911;28;45314;-77
2021/06/01 10:10:33;;;;;;;;;7.75;6.00;;;;;22.36;40.42;101054.91;4902313;28;46125;-76
2021/06/01 10:13:02;;;;;;;;;8.00;8.00;;;;;22.39;41.65;101061.84;4891240;29;45564;-76
2021/06/01 10:15:29;;;;;;;;;7.25;6.00;;;;;22.52;40.65;101050.16;4902718;28;45480;-77
2021/06/01 10:17:55;;;;;;;;;6.75;5.75;;;;;22.47;40.32;101047.84;4903100;28;45383;-77
2021/06/01 10:20:23;;;;;;;;;8.00;7.25;;;;;22.40;40.58;101036.75;4916946;28;47249;-77
2021/06/01 10:22:49;;;;;;;;;5.75;5.00;;;;;22.37;40.73;101034.34;4903193;28;45368;-77
2021/06/01 10:25:16;;;;;;;;;6.00;6.00;;;;;22.47;39.64;101029.94;4903530;28;45303;-76
2021/06/01 10:27:43;;;;;;;;;5.25;5.25;;;;;22.44;39.04;101038.25;4902450;28;45530;-77
2021/06/01 10:30:10;;;;;;;;;8.25;7.25;;;;;22.47;40.10;101035.28;4903751;28;45416;-77
2021/06/01 10:32:38;;;;;;;;;6.50;5.50;;;;;22.50;39.84;101026.16;4902559;28;45338;-77
2021/06/01 10:35:08;;;;;;;;;7.50;6.50;;;;;22.37;40.14;101026.31;4900646;28;45477;-77
2021/06/01 10:52:12;;;;;;;;;5.75;5.25;;;;;22.72;38.97;101019.13;4903120;29;45432;-77
2021/06/01 10:54:48;;;;;;;;;6.50;6.50;;;;;22.79;39.47;101008.78;4889980;29;45629;-77
2021/06/01 10:57:15;;;;;;;;;5.00;4.00;;;;;22.66;38.77;101009.72;4902916;29;45448;-77
2021/06/01 11:02:27;;;;;;;;;7.00;5.00;;;;;22.56;39.38;101014.13;4902738;29;45326;-77
2021/06/01 11:05:05;;;;;;;;;5.75;5.75;;;;;22.59;39.82;101019.25;4901647;29;45315;-77
2021/06/01 11:07:54;;;;;;;;;5.00;5.00;;;;;22.75;38.69;101007.31;4895834;29;45354;-77
2021/06/01 11:10:45;;;;;;;;;8.00;6.00;;;;;22.91;38.32;101007.78;4902675;28;45495;-77
2021/06/01 11:13:30;;;;;;;;;7.00;6.00;;;;;22.83;38.38;101007.53;4902163;28;46248;-77
2021/06/01 11:15:58;;;;;;;;;7.75;7.75;;;;;22.57;39.13;100999.78;4902290;29;45485;-77
2021/06/01 11:18:38;;;;;;;;;5.75;5.75;;;;;22.47;39.08;101000.47;4902441;28;45146;-77
2021/06/01 11:35:21;;;;;;;;;6.00;6.00;;;;;22.48;38.23;100986.13;4902640;28;46213;-77
2021/06/01 11:38:00;;;;;;;;;6.50;5.75;;;;;22.59;38.84;100981.75;4902547;28;45502;-77
2021/06/01 11:43:14;;;;;;;;;5.00;5.00;;;;;22.65;39.38;100975.00;4902077;28;45321;-77
2021/06/01 11:45:41;;;;;;;;;6.00;6.00;;;;;22.40;38.77;100977.84;4902835;28;46196;-77
2021/06/01 11:48:29;;;;;;;;;5.00;5.00;;;;;22.13;38.71;100968.38;4900770;28;45508;-77
2021/06/01 11:51:15;;;;;;;;;5.00;5.00;;;;;21.94;39.45;100968.97;4892656;29;45314;-77
2021/06/01 11:53:51;;;;;;;;;6.25;5.75;;;;;21.66;39.64;100961.22;4904469;29;46337;-77
2021/06/01 11:56:38;;;;;;;;;7.00;6.00;;;;;21.73;40.05;100962.44;4913395;28;45895;-77
2021/06/01 12:02:03;;;;;;;;;6.75;5.75;;;;;21.46;40.82;100960.94;4901238;28;45310;-77
2021/06/01 12:04:35;;;;;;;;;4.75;4.75;;;;;21.52;41.21;100962.28;4904581;28;46141;-77
2021/06/01 12:18:15;;;;;;;;;6.00;6.00;;;;;21.55;40.63;100951.38;4905260;29;45386;-77
2021/06/01 12:20:41;;;;;;;;;7.50;6.25;;;;;21.75;40.10;100952.50;4905490;28;45580;-77
2021/06/01 12:23:33;;;;;;;;;5.25;4.50;;;;;22.02;40.52;100959.38;4905695;28;45315;-77
2021/06/01 12:31:51;;;;;;;;;8.75;8.00;;;;;22.39;37.58;100954.75;4917172;28;46618;-77
2021/06/01 12:34:21;;;;;;;;;5.25;5.00;;;;;22.66;39.53;100953.47;4904235;28;45729;-77
2021/06/01 12:42:52;;;;;;;;;5.75;5.00;;;;;22.23;40.42;100947.94;4904281;29;45298;-77
2021/06/01 12:45:53;;;;;;;;;6.00;6.00;;;;;22.33;39.92;100944.50;4905548;28;45369;-77
2021/06/01 13:20:09;;;;;;;;;8.00;6.50;;;;;22.53;39.63;100921.47;4904668;29;45247;-77
2021/06/01 13:46:01;;;;;;;;;6.75;4.00;;;;;22.66;40.58;100904.41;4904043;29;45753;-81